Estación municipal de Cànoves i Samalús (Vallès Oriental, P.N.del Montseny)

Consulta los datos en tiempo real de la estación municipal de Cànoves i Samalús





Hora UTC 09:05
Temperatura 15.7 ºC
Humedad 78.0 %
Presión 1013.2 hPa
Pluja 0.0 mm
Velocidad viento 7.2 km/h
Dirección viento SSW
Radiación solar 785.5 W/m²

Webcam

Datos diarios 2026-05-07



Hora UTC (invierno +1h; verano +2h)
Temperatura (ºC) Humedad (%) Presión (hPa) Velocidad viento (km/h) Precipitación (mm) Radiación solar (W/m²)
Hora UTC Aire Humedad Presión Vel. Dir. Vel. Max Dir. Intent. máx 5 min. Rad. Sol.
00:05 11.2 92.5 1012.8 0.7 NNE 0.7 NE 0.0 0.1
00:10 11.0 92.5 1012.8 4.3 E 6.7 ENE 0.0 0.1
00:15 11.0 93.2 1012.8 1.3 ENE 3.5 E 0.0 0.1
00:20 11.2 93.9 1012.8 3.4 N 6.0 NNW 0.0 0.1
00:25 11.4 94.0 1012.8 1.6 NNW 3.9 N 0.0 0.1
00:30 11.3 93.7 1012.8 1.4 NW 3.5 NW 0.0 0.1
00:35 11.2 93.6 1012.7 0.8 NE 2.8 NE 0.0 0.1
00:40 11.0 93.4 1012.7 1.9 NNW 6.0 NNW 0.0 0.1
00:45 10.8 93.4 1012.7 4.3 NW 6.7 NW 0.0 0.1
00:50 10.7 93.7 1012.6 3.3 NW 6.7 WNW 0.0 0.1
00:55 10.7 93.8 1012.5 1.7 N 4.6 ENE 0.0 0.1
01:00 10.6 93.7 1012.5 3.5 NE 4.9 NE 0.0 0.1
01:05 10.5 93.8 1012.5 4.0 N 5.3 N 0.0 0.1
01:10 10.4 94.1 1012.5 2.2 NNW 5.3 NE 0.0 0.1
01:15 10.4 94.2 1012.5 2.9 NW 4.9 NW 0.0 0.1
01:20 10.4 94.3 1012.5 3.8 NW 5.3 NW 0.0 0.1
01:25 10.4 94.5 1012.5 3.2 NNW 4.6 NW 0.0 0.1
01:30 10.5 94.6 1012.4 2.2 N 3.9 NNE 0.0 0.1
01:35 10.6 94.8 1012.5 1.1 N 3.2 NNE 0.0 0.1
01:40 10.6 94.7 1012.5 1.3 NNE 2.5 NNE 0.0 0.1
01:45 10.6 94.6 1012.5 0.8 NE 2.8 ENE 0.0 0.1
01:50 10.7 94.6 1012.5 1.6 NW 3.9 NNW 0.0 0.1
01:55 10.8 94.8 1012.4 3.4 NNW 4.9 NNW 0.0 0.1
02:00 10.8 94.6 1012.3 0.9 NW 4.2 N 0.0 0.1
02:05 10.7 94.5 1012.3 0.2 NNW 3.5 NNE 0.0 0.1
02:10 10.7 94.6 1012.3 2.2 NE 5.3 NE 0.0 0.1
02:15 10.7 94.4 1012.2 0.9 NE 3.5 NE 0.0 0.1
02:20 10.6 94.3 1012.2 0.7 NNE 2.8 NNW 0.0 0.1
02:25 10.6 94.2 1012.2 3.4 NE 6.4 NNW 0.0 0.1
02:30 10.5 94.0 1012.2 3.9 NNE 7.4 NNE 0.0 0.1
02:35 10.4 93.8 1012.2 2.4 N 6.0 NNE 0.0 0.1
02:40 10.3 93.8 1012.1 4.7 N 7.4 NNE 0.0 0.1
02:45 10.4 93.8 1012.2 4.2 N 11.3 NNE 0.0 0.1
02:50 10.4 93.5 1012.1 2.3 N 8.1 NNW 0.0 0.1
02:55 10.2 93.2 1012.2 2.3 N 8.8 NNE 0.0 0.1
03:00 10.3 93.3 1012.1 3.2 N 8.8 NE 0.0 0.1
03:05 10.3 92.8 1012.1 5.0 NNE 9.5 NNE 0.0 0.1
03:10 10.3 92.4 1012.1 4.3 N 9.5 NNW 0.0 0.1
03:15 10.4 91.9 1012.1 4.1 N 9.9 NNE 0.0 0.1
03:20 10.5 91.4 1012.2 4.1 N 10.6 NE 0.0 0.1
03:25 10.4 90.6 1012.2 4.5 NNW 10.9 N 0.0 0.1
03:30 10.3 90.5 1012.2 3.1 NNW 7.4 N 0.0 0.1
03:35 10.2 90.5 1012.1 2.6 NNW 6.0 NNW 0.0 0.1
03:40 10.1 90.6 1012.1 0.7 N 4.2 N 0.0 0.1
03:45 10.0 90.5 1012.1 0.3 NW 2.5 NW 0.0 0.1
03:50 9.8 90.6 1012.1 1.0 NW 5.3 NNE 0.0 0.1
03:55 9.8 91.3 1012.1 2.7 N 7.1 NNE 0.0 0.1
04:00 9.8 91.5 1012.2 2.6 N 8.1 NNE 0.0 0.1
04:05 9.8 91.6 1012.2 1.9 NNW 5.3 N 0.0 0.1
04:10 9.7 91.6 1012.2 2.5 NNW 7.1 NNE 0.0 0.1
04:15 9.7 91.8 1012.1 3.1 NNW 7.1 NW 0.0 0.2
04:20 9.6 92.0 1012.0 3.0 NNW 5.3 NNW 0.0 0.5
04:25 9.7 92.2 1012.0 3.4 NNW 8.5 N 0.0 1.1
04:30 9.6 92.1 1012.1 3.9 N 9.9 N 0.0 2.0
04:35 9.8 92.2 1012.1 4.0 N 7.4 NNE 0.0 3.4
04:40 9.7 91.8 1012.1 1.6 NNW 5.6 0.0 5.1
04:45 9.5 91.6 1012.2 1.8 NNW 7.8 N 0.0 7.3
04:50 9.5 92.0 1012.2 3.7 NW 5.6 NW 0.0 9.7
04:55 9.6 92.3 1012.2 3.4 NW 7.1 NNW 0.0 12.1
05:00 9.5 92.2 1012.2 0.9 NNW 3.5 NNE 0.0 14.5
05:05 9.4 92.2 1012.2 1.5 NNW 3.9 NNW 0.0 17.3
05:10 9.4 92.4 1012.3 2.1 NNW 4.6 N 0.0 23.9
05:15 9.5 93.0 1012.3 2.6 NNW 6.4 N 0.0 33.7
05:20 9.8 93.4 1012.3 2.7 N 5.6 NNE 0.0 25.6
05:25 10.0 93.1 1012.4 5.1 N 8.1 NNW 0.0 54.9
05:30 10.2 92.6 1012.4 4.4 N 7.8 NW 0.0 113.7
05:35 10.5 92.2 1012.5 2.9 N 7.8 N 0.0 124.6
05:40 10.9 90.6 1012.6 4.7 NNW 9.5 N 0.0 133.9
05:45 11.2 89.4 1012.6 3.2 NNE 7.1 N 0.0 145.4
05:50 11.5 87.8 1012.6 3.9 NNE 7.4 NNW 0.0 159.3
05:55 11.8 86.1 1012.7 5.5 N 10.6 N 0.0 174.1
06:00 11.9 84.8 1012.6 3.8 NNE 9.5 NE 0.0 189.2
06:05 12.2 84.2 1012.6 4.9 N 8.8 NNW 0.0 203.8
06:10 12.5 83.4 1012.6 4.8 N 9.2 N 0.0 218.0
06:15 12.8 82.3 1012.7 4.7 N 9.2 N 0.0 232.8
06:20 13.2 82.3 1012.8 1.7 N 4.9 NNW 0.0 248.0
06:25 13.6 81.1 1012.8 0.5 NNE 3.2 N 0.0 263.3
06:30 14.1 80.3 1012.9 0.3 E 1.8 E 0.0 253.2
06:35 14.5 78.1 1012.9 1.6 SE 3.9 SE 0.0 302.0
06:40 14.6 78.6 1013.0 3.4 ESE 5.6 ESE 0.0 202.8
06:45 14.6 79.1 1013.0 6.5 ESE 13.1 SSE 0.0 129.7
06:50 14.4 79.0 1013.1 8.1 SE 13.4 SE 0.0 323.0
06:55 14.5 79.6 1013.2 6.1 E 10.2 ESE 0.0 364.9
07:00 14.7 80.1 1013.2 5.8 ESE 10.6 SE 0.0 388.9
07:05 14.8 80.6 1013.3 5.2 E 8.5 NE 0.0 440.0
07:10 14.8 79.6 1013.3 5.8 SE 9.5 SE 0.0 206.0
07:15 14.5 80.9 1013.4 2.0 ESE 6.0 ESE 0.0 225.3
07:20 14.6 81.1 1013.4 0.7 SE 3.9 SE 0.0 215.7
07:25 14.6 81.1 1013.5 3.4 SE 7.4 SSE 0.0 183.9
07:30 14.4 80.8 1013.5 2.6 S 5.3 S 0.0 134.7
07:35 14.3 81.5 1013.5 3.3 SSE 6.0 SSW 0.0 119.3
07:40 14.4 82.8 1013.5 2.7 S 5.6 SE 0.0 133.7
07:45 14.2 83.0 1013.4 4.4 SSE 7.1 SSE 0.0 154.9
07:50 14.1 83.1 1013.4 3.2 SE 4.9 SSE 0.0 179.5
07:55 14.1 83.1 1013.4 0.9 SE 2.8 SE 0.0 198.8
08:00 14.3 82.4 1013.4 1.8 SSE 4.9 SE 0.0 329.9
08:05 14.6 81.6 1013.4 1.8 SSE 6.7 S 0.0 409.1
08:10 14.8 79.7 1013.3 1.9 SE 6.0 SE 0.0 589.0
08:15 15.3 78.1 1013.4 3.4 SSE 8.1 SSE 0.0 570.3
08:20 15.3 76.4 1013.3 1.8 SW 4.9 S 0.0 413.7
08:25 15.6 75.3 1013.2 4.2 SSE 8.5 S 0.0 371.5
08:30 15.5 75.6 1013.2 6.0 S 9.9 S 0.0 448.6
08:35 15.3 76.8 1013.1 3.5 SSW 6.7 S 0.0 309.2
08:40 15.3 76.4 1013.1 3.4 SSW 6.7 SW 0.0 570.7
08:45 15.6 76.7 1013.1 1.7 S 4.6 SE 0.0 378.1
08:50 15.8 76.0 1013.1 5.3 S 12.4 SSW 0.0 259.7
08:55 15.4 76.2 1013.2 6.4 S 12.7 SE 0.0 418.9
09:00 15.3 77.4 1013.1 7.2 S 14.1 S 0.0 508.0
09:05 15.7 78.0 1013.2 7.2 SSW 13.4 SSE 0.0 785.5
Máxima 15.8 94.8 1013.5 8.1 SE 14.1 S 0.0 785.5
Mínima 9.4 75.3 1012.0
Total 0.0